sensor_id;sensor_type;location;lat;lon;timestamp;pressure;altitude;pressure_sealevel;temperature;humidity
31092;BME280;67728;53.122;12.776;2023-12-20T00:00:24;99972.84;;;6.08;100.00
31092;BME280;67728;53.122;12.776;2023-12-20T00:01:56;99965.16;;;6.05;100.00
31092;BME280;67728;53.122;12.776;2023-12-20T00:03:26;99967.72;;;6.05;100.00
31092;BME280;67728;53.122;12.776;2023-12-20T00:04:58;99976.31;;;6.04;100.00
31092;BME280;67728;53.122;12.776;2023-12-20T00:06:30;99969.44;;;6.03;100.00
31092;BME280;67728;53.122;12.776;2023-12-20T00:08:02;99969.44;;;6.03;100.00
31092;BME280;67728;53.122;12.776;2023-12-20T00:09:33;99964.34;;;6.00;100.00
31092;BME280;67728;53.122;12.776;2023-12-20T00:11:04;99960.91;;;5.98;100.00
31092;BME280;67728;53.122;12.776;2023-12-20T00:12:35;99966.06;;;5.98;100.00
31092;BME280;67728;53.122;12.776;2023-12-20T00:14:06;99960.06;;;5.99;100.00
31092;BME280;67728;53.122;12.776;2023-12-20T00:15:37;99958.38;;;5.96;100.00
31092;BME280;67728;53.122;12.776;2023-12-20T00:17:09;99957.50;;;5.96;100.00
31092;BME280;67728;53.122;12.776;2023-12-20T00:18:39;99958.38;;;5.95;100.00
31092;BME280;67728;53.122;12.776;2023-12-20T00:20:11;99957.53;;;5.93;100.00
31092;BME280;67728;53.122;12.776;2023-12-20T00:21:43;99953.28;;;5.90;100.00
31092;BME280;67728;53.122;12.776;2023-12-20T00:23:15;99947.28;;;5.87;100.00
31092;BME280;67728;53.122;12.776;2023-12-20T00:24:47;99944.72;;;5.82;100.00
31092;BME280;67728;53.122;12.776;2023-12-20T00:26:17;99947.31;;;5.84;100.00
31092;BME280;67728;53.122;12.776;2023-12-20T00:27:49;99944.75;;;5.81;100.00
31092;BME280;67728;53.122;12.776;2023-12-20T00:29:19;99953.38;;;5.75;100.00
31092;BME280;67728;53.122;12.776;2023-12-20T00:30:51;99951.66;;;5.74;100.00
31092;BME280;67728;53.122;12.776;2023-12-20T00:32:22;99943.09;;;5.71;100.00
31092;BME280;67728;53.122;12.776;2023-12-20T00:33:53;99948.31;;;5.65;100.00
31092;BME280;67728;53.122;12.776;2023-12-20T00:35:25;99958.59;;;5.66;100.00
31092;BME280;67728;53.122;12.776;2023-12-20T00:36:57;99959.50;;;5.61;100.00
31092;BME280;67728;53.122;12.776;2023-12-20T00:38:28;99956.06;;;5.60;100.00
31092;BME280;67728;53.122;12.776;2023-12-20T00:40:00;99965.56;;;5.49;100.00
31092;BME280;67728;53.122;12.776;2023-12-20T00:41:31;99963.81;;;5.56;100.00
31092;BME280;67728;53.122;12.776;2023-12-20T00:43:03;99968.13;;;5.52;100.00
31092;BME280;67728;53.122;12.776;2023-12-20T00:44:33;99957.84;;;5.49;100.00
31092;BME280;67728;53.122;12.776;2023-12-20T00:46:05;99963.88;;;5.48;100.00
31092;BME280;67728;53.122;12.776;2023-12-20T00:47:36;99972.47;;;5.44;100.00
31092;BME280;67728;53.122;12.776;2023-12-20T00:49:07;99959.66;;;5.39;100.00
31092;BME280;67728;53.122;12.776;2023-12-20T00:50:38;99964.78;;;5.42;100.00
31092;BME280;67728;53.122;12.776;2023-12-20T00:52:11;99959.63;;;5.42;100.00
31092;BME280;67728;53.122;12.776;2023-12-20T00:53:41;99961.31;;;5.47;100.00
31092;BME280;67728;53.122;12.776;2023-12-20T00:55:13;99976.78;;;5.39;100.00
31092;BME280;67728;53.122;12.776;2023-12-20T00:56:44;99979.38;;;5.37;100.00
31092;BME280;67728;53.122;12.776;2023-12-20T00:58:15;99971.66;;;5.37;100.00
31092;BME280;67728;53.122;12.776;2023-12-20T00:59:47;99973.34;;;5.41;100.00
31092;BME280;67728;53.122;12.776;2023-12-20T01:01:19;99968.22;;;5.35;100.00
31092;BME280;67728;53.122;12.776;2023-12-20T01:02:49;99969.09;;;5.37;100.00
31092;BME280;67728;53.122;12.776;2023-12-20T01:04:21;99966.50;;;5.36;100.00
31092;BME280;67728;53.122;12.776;2023-12-20T01:05:52;99975.09;;;5.36;100.00
31092;BME280;67728;53.122;12.776;2023-12-20T01:07:25;99975.94;;;5.37;100.00
31092;BME280;67728;53.122;12.776;2023-12-20T01:08:55;99975.09;;;5.36;100.00
31092;BME280;67728;53.122;12.776;2023-12-20T01:10:27;99975.94;;;5.38;100.00
31092;BME280;67728;53.122;12.776;2023-12-20T01:11:59;99971.66;;;5.36;100.00
31092;BME280;67728;53.122;12.776;2023-12-20T01:13:31;99972.53;;;5.35;100.00
31092;BME280;67728;53.122;12.776;2023-12-20T01:15:02;99967.41;;;5.32;100.00
31092;BME280;67728;53.122;12.776;2023-12-20T01:16:33;99969.97;;;5.30;100.00
31092;BME280;67728;53.122;12.776;2023-12-20T01:18:05;99972.56;;;5.27;100.00
31092;BME280;67728;53.122;12.776;2023-12-20T01:19:36;99964.88;;;5.26;100.00
31092;BME280;67728;53.122;12.776;2023-12-20T01:21:07;99955.44;;;5.25;100.00
31092;BME280;67728;53.122;12.776;2023-12-20T01:22:39;99950.28;;;5.28;100.00
31092;BME280;67728;53.122;12.776;2023-12-20T01:24:13;99952.00;;;5.29;100.00
31092;BME280;67728;53.122;12.776;2023-12-20T01:25:43;99954.63;;;5.24;100.00
31092;BME280;67728;53.122;12.776;2023-12-20T01:27:15;99957.19;;;5.24;100.00
31092;BME280;67728;53.122;12.776;2023-12-20T01:28:45;99958.03;;;5.23;100.00
31092;BME280;67728;53.122;12.776;2023-12-20T01:30:17;99951.19;;;5.19;100.00
31092;BME280;67728;53.122;12.776;2023-12-20T01:31:48;99957.22;;;5.15;100.00
31092;BME280;67728;53.122;12.776;2023-12-20T01:33:19;99956.41;;;5.09;100.00
31092;BME280;67728;53.122;12.776;2023-12-20T01:34:50;99939.28;;;5.06;100.00
31092;BME280;67728;53.122;12.776;2023-12-20T01:36:21;99947.00;;;5.06;100.00
31092;BME280;67728;53.122;12.776;2023-12-20T01:37:53;99956.44;;;5.04;100.00
31092;BME280;67728;53.122;12.776;2023-12-20T01:39:26;99949.56;;;5.03;100.00
31092;BME280;67728;53.122;12.776;2023-12-20T01:40:57;99962.44;;;5.02;100.00
31092;BME280;67728;53.122;12.776;2023-12-20T01:42:29;99966.72;;;5.01;100.00
31092;BME280;67728;53.122;12.776;2023-12-20T01:44:00;99960.72;;;5.01;100.00
31092;BME280;67728;53.122;12.776;2023-12-20T01:45:31;99955.59;;;4.98;100.00
31092;BME280;67728;53.122;12.776;2023-12-20T01:47:02;99956.47;;;4.97;100.00
31092;BME280;67728;53.122;12.776;2023-12-20T01:48:34;99954.78;;;4.97;100.00
31092;BME280;67728;53.122;12.776;2023-12-20T01:50:06;99962.47;;;4.97;100.00
31092;BME280;67728;53.122;12.776;2023-12-20T01:51:38;99959.91;;;4.96;100.00
31092;BME280;67728;53.122;12.776;2023-12-20T01:53:11;99959.88;;;4.99;100.00
31092;BME280;67728;53.122;12.776;2023-12-20T01:54:43;99970.16;;;5.00;100.00
31092;BME280;67728;53.122;12.776;2023-12-20T01:56:15;99971.00;;;5.01;100.00
31092;BME280;67728;53.122;12.776;2023-12-20T01:57:47;99966.75;;;5.00;100.00
31092;BME280;67728;53.122;12.776;2023-12-20T01:59:18;99961.59;;;4.98;100.00
31092;BME280;67728;53.122;12.776;2023-12-20T02:00:51;99954.72;;;5.00;100.00
31092;BME280;67728;53.122;12.776;2023-12-20T02:02:22;99959.03;;;5.03;100.00
31092;BME280;67728;53.122;12.776;2023-12-20T02:03:54;99952.16;;;5.02;100.00
31092;BME280;67728;53.122;12.776;2023-12-20T02:05:26;99956.41;;;5.06;100.00
31092;BME280;67728;53.122;12.776;2023-12-20T02:06:58;99954.69;;;5.06;100.00
31092;BME280;67728;53.122;12.776;2023-12-20T02:08:31;99946.13;;;5.07;100.00
31092;BME280;67728;53.122;12.776;2023-12-20T02:10:03;99946.16;;;5.04;100.00
31092;BME280;67728;53.122;12.776;2023-12-20T02:11:34;99946.13;;;5.06;100.00
31092;BME280;67728;53.122;12.776;2023-12-20T02:13:07;99951.28;;;5.07;100.00
31092;BME280;67728;53.122;12.776;2023-12-20T02:14:39;99944.41;;;5.06;100.00
31092;BME280;67728;53.122;12.776;2023-12-20T02:16:09;99950.41;;;5.08;100.00
31092;BME280;67728;53.122;12.776;2023-12-20T02:17:41;99948.69;;;5.10;100.00
31092;BME280;67728;53.122;12.776;2023-12-20T02:19:13;99950.41;;;5.10;100.00
31092;BME280;67728;53.122;12.776;2023-12-20T02:20:45;99947.00;;;5.11;100.00
31092;BME280;67728;53.122;12.776;2023-12-20T02:22:18;99945.25;;;5.10;100.00
31092;BME280;67728;53.122;12.776;2023-12-20T02:23:49;99951.25;;;5.10;100.00
31092;BME280;67728;53.122;12.776;2023-12-20T02:25:20;99953.84;;;5.07;100.00
31092;BME280;67728;53.122;12.776;2023-12-20T02:26:51;99947.84;;;5.07;100.00
31092;BME280;67728;53.122;12.776;2023-12-20T02:28:23;99949.53;;;5.09;100.00
31092;BME280;67728;53.122;12.776;2023-12-20T02:29:54;99947.88;;;5.02;100.00
31092;BME280;67728;53.122;12.776;2023-12-20T02:31:25;99952.16;;;5.02;100.00
31092;BME280;67728;53.122;12.776;2023-12-20T02:32:56;99953.03;;;5.02;100.00
31092;BME280;67728;53.122;12.776;2023-12-20T02:34:30;99950.47;;;4.99;100.00
31092;BME280;67728;53.122;12.776;2023-12-20T02:36:00;99960.72;;;5.01;100.00
31092;BME280;67728;53.122;12.776;2023-12-20T02:37:34;99963.31;;;5.02;100.00
31092;BME280;67728;53.122;12.776;2023-12-20T02:39:04;99961.63;;;4.97;100.00
31092;BME280;67728;53.122;12.776;2023-12-20T02:40:36;99962.47;;;4.99;100.00
31092;BME280;67728;53.122;12.776;2023-12-20T02:42:07;99954.75;;;5.02;100.00
31092;BME280;67728;53.122;12.776;2023-12-20T02:43:38;99945.31;;;5.01;100.00
31092;BME280;67728;53.122;12.776;2023-12-20T02:45:09;99939.31;;;5.00;100.00
31092;BME280;67728;53.122;12.776;2023-12-20T02:46:41;99937.59;;;5.01;100.00
31092;BME280;67728;53.122;12.776;2023-12-20T02:48:11;99943.63;;;5.00;100.00
31092;BME280;67728;53.122;12.776;2023-12-20T02:49:43;99948.75;;;5.00;100.00
31092;BME280;67728;53.122;12.776;2023-12-20T02:51:13;99945.31;;;4.99;100.00
31092;BME280;67728;53.122;12.776;2023-12-20T02:52:46;99937.63;;;4.96;100.00
31092;BME280;67728;53.122;12.776;2023-12-20T02:54:17;99933.34;;;4.95;100.00
31092;BME280;67728;53.122;12.776;2023-12-20T02:55:49;99934.22;;;4.93;100.00
31092;BME280;67728;53.122;12.776;2023-12-20T02:57:19;99931.66;;;4.93;100.00
31092;BME280;67728;53.122;12.776;2023-12-20T02:58:51;99930.81;;;4.88;100.00
31092;BME280;67728;53.122;12.776;2023-12-20T03:00:21;99929.13;;;4.88;100.00
31092;BME280;67728;53.122;12.776;2023-12-20T03:01:53;99942.81;;;4.87;100.00
31092;BME280;67728;53.122;12.776;2023-12-20T03:03:23;99935.13;;;4.86;100.00
31092;BME280;67728;53.122;12.776;2023-12-20T03:04:55;99934.25;;;4.85;100.00
31092;BME280;67728;53.122;12.776;2023-12-20T03:06:26;99920.59;;;4.80;100.00
31092;BME280;67728;53.122;12.776;2023-12-20T03:07:59;99921.47;;;4.77;100.00
31092;BME280;67728;53.122;12.776;2023-12-20T03:09:30;99919.75;;;4.75;100.00
31092;BME280;67728;53.122;12.776;2023-12-20T03:11:01;99919.78;;;4.72;100.00
31092;BME280;67728;53.122;12.776;2023-12-20T03:12:32;99927.47;;;4.72;100.00
31092;BME280;67728;53.122;12.776;2023-12-20T03:14:03;99924.88;;;4.73;100.00
31092;BME280;67728;53.122;12.776;2023-12-20T03:15:35;99926.59;;;4.74;100.00
31092;BME280;67728;53.122;12.776;2023-12-20T03:17:07;99925.75;;;4.77;100.00
31092;BME280;67728;53.122;12.776;2023-12-20T03:18:38;99921.47;;;4.74;100.00
31092;BME280;67728;53.122;12.776;2023-12-20T03:20:09;99921.47;;;4.71;100.00
31092;BME280;67728;53.122;12.776;2023-12-20T03:21:40;99918.94;;;4.70;100.00
31092;BME280;67728;53.122;12.776;2023-12-20T03:23:13;99930.03;;;4.70;100.00
31092;BME280;67728;53.122;12.776;2023-12-20T03:24:44;99925.75;;;4.71;100.00
31092;BME280;67728;53.122;12.776;2023-12-20T03:26:15;99923.19;;;4.72;100.00
31092;BME280;67728;53.122;12.776;2023-12-20T03:27:46;99923.19;;;4.71;100.00
31092;BME280;67728;53.122;12.776;2023-12-20T03:29:17;99919.75;;;4.70;100.00
31092;BME280;67728;53.122;12.776;2023-12-20T03:30:49;99918.06;;;4.72;100.00
31092;BME280;67728;53.122;12.776;2023-12-20T03:32:20;99911.22;;;4.71;100.00
31092;BME280;67728;53.122;12.776;2023-12-20T03:33:51;99906.91;;;4.73;100.00
31092;BME280;67728;53.122;12.776;2023-12-20T03:35:23;99905.22;;;4.71;100.00
31092;BME280;67728;53.122;12.776;2023-12-20T03:36:55;99904.38;;;4.66;100.00
31092;BME280;67728;53.122;12.776;2023-12-20T03:38:27;99906.94;;;4.66;100.00
31092;BME280;67728;53.122;12.776;2023-12-20T03:39:59;99906.13;;;4.64;100.00
31092;BME280;67728;53.122;12.776;2023-12-20T03:41:30;99906.09;;;4.67;100.00
31092;BME280;67728;53.122;12.776;2023-12-20T03:43:01;99904.34;;;4.70;100.00
31092;BME280;67728;53.122;12.776;2023-12-20T03:44:32;99907.81;;;4.69;100.00
31092;BME280;67728;53.122;12.776;2023-12-20T03:46:04;99904.34;;;4.70;100.00
31092;BME280;67728;53.122;12.776;2023-12-20T03:47:34;99902.63;;;4.74;100.00
31092;BME280;67728;53.122;12.776;2023-12-20T03:49:06;99895.75;;;4.76;100.00
31092;BME280;67728;53.122;12.776;2023-12-20T03:50:36;99900.03;;;4.78;100.00
31092;BME280;67728;53.122;12.776;2023-12-20T03:52:08;99900.91;;;4.80;100.00
31092;BME280;67728;53.122;12.776;2023-12-20T03:53:40;99903.44;;;4.85;100.00
31092;BME280;67728;53.122;12.776;2023-12-20T03:55:12;99900.91;;;4.80;100.00
31092;BME280;67728;53.122;12.776;2023-12-20T03:56:42;99896.56;;;4.84;100.00
31092;BME280;67728;53.122;12.776;2023-12-20T03:58:14;99898.28;;;4.85;100.00
31092;BME280;67728;53.122;12.776;2023-12-20T03:59:44;99899.16;;;4.84;100.00
31092;BME280;67728;53.122;12.776;2023-12-20T04:01:17;99892.31;;;4.83;100.00
31092;BME280;67728;53.122;12.776;2023-12-20T04:02:47;99895.75;;;4.83;100.00
31092;BME280;67728;53.122;12.776;2023-12-20T04:04:19;99893.16;;;4.82;100.00
31092;BME280;67728;53.122;12.776;2023-12-20T04:05:51;99887.19;;;4.80;100.00
31092;BME280;67728;53.122;12.776;2023-12-20T04:07:21;99887.19;;;4.80;100.00
31092;BME280;67728;53.122;12.776;2023-12-20T04:08:54;99883.78;;;4.78;100.00
31092;BME280;67728;53.122;12.776;2023-12-20T04:10:25;99884.63;;;4.77;100.00
31092;BME280;67728;53.122;12.776;2023-12-20T04:11:56;99876.09;;;4.72;100.00
31092;BME280;67728;53.122;12.776;2023-12-20T04:13:27;99873.56;;;4.69;100.00
31092;BME280;67728;53.122;12.776;2023-12-20T04:14:59;99868.44;;;4.63;100.00
31092;BME280;67728;53.122;12.776;2023-12-20T04:16:29;99860.78;;;4.58;100.00
31092;BME280;67728;53.122;12.776;2023-12-20T04:18:01;99861.63;;;4.54;100.00
31092;BME280;67728;53.122;12.776;2023-12-20T04:19:32;99868.50;;;4.52;100.00
31092;BME280;67728;53.122;12.776;2023-12-20T04:21:04;99859.09;;;4.51;100.00
31092;BME280;67728;53.122;12.776;2023-12-20T04:22:34;99859.13;;;4.48;100.00
31092;BME280;67728;53.122;12.776;2023-12-20T04:24:07;99854.84;;;4.44;100.00
31092;BME280;67728;53.122;12.776;2023-12-20T04:25:38;99858.25;;;4.45;100.00
31092;BME280;67728;53.122;12.776;2023-12-20T04:27:10;99860.00;;;4.40;100.00
31092;BME280;67728;53.122;12.776;2023-12-20T04:28:40;99860.84;;;4.39;100.00
31092;BME280;67728;53.122;12.776;2023-12-20T04:30:13;99851.41;;;4.44;100.00
31092;BME280;67728;53.122;12.776;2023-12-20T04:31:44;99851.44;;;4.41;100.00
31092;BME280;67728;53.122;12.776;2023-12-20T04:33:15;99857.44;;;4.43;100.00
31092;BME280;67728;53.122;12.776;2023-12-20T04:34:46;99857.41;;;4.44;100.00
31092;BME280;67728;53.122;12.776;2023-12-20T04:36:17;99856.53;;;4.44;100.00
31092;BME280;67728;53.122;12.776;2023-12-20T04:37:49;99846.28;;;4.45;100.00
31092;BME280;67728;53.122;12.776;2023-12-20T04:39:21;99844.53;;;4.49;100.00
31092;BME280;67728;53.122;12.776;2023-12-20T04:40:53;99841.13;;;4.50;100.00
31092;BME280;67728;53.122;12.776;2023-12-20T04:42:23;99847.97;;;4.49;100.00
31092;BME280;67728;53.122;12.776;2023-12-20T04:43:55;99840.25;;;4.52;100.00
31092;BME280;67728;53.122;12.776;2023-12-20T04:45:25;99836.84;;;4.50;100.00
31092;BME280;67728;53.122;12.776;2023-12-20T04:46:57;99839.38;;;4.52;100.00
31092;BME280;67728;53.122;12.776;2023-12-20T04:48:28;99837.66;;;4.55;100.00
31092;BME280;67728;53.122;12.776;2023-12-20T04:49:59;99836.81;;;4.56;100.00
31092;BME280;67728;53.122;12.776;2023-12-20T04:51:32;99828.25;;;4.56;100.00
31092;BME280;67728;53.122;12.776;2023-12-20T04:53:04;99834.25;;;4.56;100.00
31092;BME280;67728;53.122;12.776;2023-12-20T04:54:36;99833.41;;;4.56;100.00
31092;BME280;67728;53.122;12.776;2023-12-20T04:56:08;99835.09;;;4.55;100.00
31092;BME280;67728;53.122;12.776;2023-12-20T04:57:38;99846.22;;;4.57;100.00
31092;BME280;67728;53.122;12.776;2023-12-20T04:59:10;99840.19;;;4.60;100.00
31092;BME280;67728;53.122;12.776;2023-12-20T05:00:41;99839.31;;;4.62;100.00
31092;BME280;67728;53.122;12.776;2023-12-20T05:02:12;99845.31;;;4.63;100.00
31092;BME280;67728;53.122;12.776;2023-12-20T05:03:43;99842.78;;;4.60;100.00
31092;BME280;67728;53.122;12.776;2023-12-20T05:05:15;99841.91;;;4.62;100.00
31092;BME280;67728;53.122;12.776;2023-12-20T05:06:47;99846.19;;;4.63;100.00
31092;BME280;67728;53.122;12.776;2023-12-20T05:08:20;99844.47;;;4.64;100.00
31092;BME280;67728;53.122;12.776;2023-12-20T05:09:52;99838.44;;;4.68;100.00
31092;BME280;67728;53.122;12.776;2023-12-20T05:11:23;99841.00;;;4.68;100.00
31092;BME280;67728;53.122;12.776;2023-12-20T05:12:54;99832.44;;;4.70;100.00
31092;BME280;67728;53.122;12.776;2023-12-20T05:14:26;99842.75;;;4.67;100.00
31092;BME280;67728;53.122;12.776;2023-12-20T05:15:56;99844.44;;;4.70;100.00
31092;BME280;67728;53.122;12.776;2023-12-20T05:17:28;99838.44;;;4.71;100.00
31092;BME280;67728;53.122;12.776;2023-12-20T05:18:58;99835.88;;;4.71;100.00
31092;BME280;67728;53.122;12.776;2023-12-20T05:20:32;99828.16;;;4.68;100.00
31092;BME280;67728;53.122;12.776;2023-12-20T05:22:04;99833.31;;;4.69;100.00
31092;BME280;67728;53.122;12.776;2023-12-20T05:23:34;99834.19;;;4.70;100.00
31092;BME280;67728;53.122;12.776;2023-12-20T05:25:07;99834.19;;;4.70;100.00
31092;BME280;67728;53.122;12.776;2023-12-20T05:26:38;99837.63;;;4.67;100.00
31092;BME280;67728;53.122;12.776;2023-12-20T05:28:10;99834.19;;;4.70;100.00
31092;BME280;67728;53.122;12.776;2023-12-20T05:29:40;99823.91;;;4.70;100.00
31092;BME280;67728;53.122;12.776;2023-12-20T05:31:12;99831.59;;;4.70;100.00
31092;BME280;67728;53.122;12.776;2023-12-20T05:32:42;99829.03;;;4.68;100.00
31092;BME280;67728;53.122;12.776;2023-12-20T05:34:14;99816.22;;;4.67;100.00
31092;BME280;67728;53.122;12.776;2023-12-20T05:35:45;99825.59;;;4.68;100.00
31092;BME280;67728;53.122;12.776;2023-12-20T05:37:16;99815.31;;;4.68;100.00
31092;BME280;67728;53.122;12.776;2023-12-20T05:38:47;99814.50;;;4.67;100.00
31092;BME280;67728;53.122;12.776;2023-12-20T05:40:20;99812.75;;;4.68;100.00
31092;BME280;67728;53.122;12.776;2023-12-20T05:41:50;99804.22;;;4.67;100.00
31092;BME280;67728;53.122;12.776;2023-12-20T05:43:22;99798.22;;;4.65;100.00
31092;BME280;67728;53.122;12.776;2023-12-20T05:44:53;99791.38;;;4.66;100.00
31092;BME280;67728;53.122;12.776;2023-12-20T05:46:25;99794.81;;;4.66;100.00
31092;BME280;67728;53.122;12.776;2023-12-20T05:47:55;99794.81;;;4.66;100.00
31092;BME280;67728;53.122;12.776;2023-12-20T05:49:27;99793.94;;;4.66;100.00
31092;BME280;67728;53.122;12.776;2023-12-20T05:50:58;99793.09;;;4.62;100.00
31092;BME280;67728;53.122;12.776;2023-12-20T05:52:29;99789.72;;;4.62;100.00
31092;BME280;67728;53.122;12.776;2023-12-20T05:54:00;99783.69;;;4.64;100.00
31092;BME280;67728;53.122;12.776;2023-12-20T05:55:33;99792.25;;;4.65;100.00
31092;BME280;67728;53.122;12.776;2023-12-20T05:57:04;99786.28;;;4.64;100.00
31092;BME280;67728;53.122;12.776;2023-12-20T05:58:36;99788.84;;;4.64;100.00
31092;BME280;67728;53.122;12.776;2023-12-20T06:00:08;99791.38;;;4.66;100.00
31092;BME280;67728;53.122;12.776;2023-12-20T06:01:40;99778.56;;;4.64;100.00
31092;BME280;67728;53.122;12.776;2023-12-20T06:03:10;99788.81;;;4.63;100.00
31092;BME280;67728;53.122;12.776;2023-12-20T06:04:42;99780.28;;;4.61;100.00
31092;BME280;67728;53.122;12.776;2023-12-20T06:06:13;99783.72;;;4.60;100.00
31092;BME280;67728;53.122;12.776;2023-12-20T06:07:45;99777.75;;;4.56;100.00
31092;BME280;67728;53.122;12.776;2023-12-20T06:09:18;99792.28;;;4.62;100.00
31092;BME280;67728;53.122;12.776;2023-12-20T06:10:51;99782.00;;;4.62;100.00
31092;BME280;67728;53.122;12.776;2023-12-20T06:12:22;99780.28;;;4.64;100.00
31092;BME280;67728;53.122;12.776;2023-12-20T06:13:53;99785.44;;;4.61;100.00
31092;BME280;67728;53.122;12.776;2023-12-20T06:15:24;99782.00;;;4.62;100.00
31092;BME280;67728;53.122;12.776;2023-12-20T06:16:55;99778.56;;;4.64;100.00
31092;BME280;67728;53.122;12.776;2023-12-20T06:18:26;99788.81;;;4.66;100.00
31092;BME280;67728;53.122;12.776;2023-12-20T06:19:58;99780.28;;;4.64;100.00
31092;BME280;67728;53.122;12.776;2023-12-20T06:21:30;99779.41;;;4.65;100.00
31092;BME280;67728;53.122;12.776;2023-12-20T06:23:00;99785.41;;;4.64;100.00
31092;BME280;67728;53.122;12.776;2023-12-20T06:24:32;99775.97;;;4.66;100.00
31092;BME280;67728;53.122;12.776;2023-12-20T06:26:05;99782.00;;;4.65;100.00
31092;BME280;67728;53.122;12.776;2023-12-20T06:27:37;99781.13;;;4.64;100.00
31092;BME280;67728;53.122;12.776;2023-12-20T06:29:07;99775.13;;;4.64;100.00
31092;BME280;67728;53.122;12.776;2023-12-20T06:30:39;99775.97;;;4.63;100.00
31092;BME280;67728;53.122;12.776;2023-12-20T06:32:10;99774.25;;;4.66;100.00
31092;BME280;67728;53.122;12.776;2023-12-20T06:33:43;99777.69;;;4.65;100.00
31092;BME280;67728;53.122;12.776;2023-12-20T06:35:13;99775.97;;;4.66;100.00
31092;BME280;67728;53.122;12.776;2023-12-20T06:36:45;99775.97;;;4.66;100.00
31092;BME280;67728;53.122;12.776;2023-12-20T06:38:19;99770.00;;;4.62;100.00
31092;BME280;67728;53.122;12.776;2023-12-20T06:39:50;99772.56;;;4.62;100.00
31092;BME280;67728;53.122;12.776;2023-12-20T06:41:22;99768.28;;;4.63;100.00
31092;BME280;67728;53.122;12.776;2023-12-20T06:42:54;99761.47;;;4.62;100.00
31092;BME280;67728;53.122;12.776;2023-12-20T06:44:25;99764.84;;;4.62;100.00
31092;BME280;67728;53.122;12.776;2023-12-20T06:45:56;99758.88;;;4.63;100.00
31092;BME280;67728;53.122;12.776;2023-12-20T06:47:27;99764.00;;;4.63;100.00
31092;BME280;67728;53.122;12.776;2023-12-20T06:48:59;99759.72;;;4.64;100.00
31092;BME280;67728;53.122;12.776;2023-12-20T06:50:29;99758.88;;;4.65;100.00
31092;BME280;67728;53.122;12.776;2023-12-20T06:52:01;99748.56;;;4.66;100.00
31092;BME280;67728;53.122;12.776;2023-12-20T06:53:32;99759.69;;;4.65;100.00
31092;BME280;67728;53.122;12.776;2023-12-20T06:55:04;99757.13;;;4.67;100.00
31092;BME280;67728;53.122;12.776;2023-12-20T06:56:37;99750.28;;;4.67;100.00
31092;BME280;67728;53.122;12.776;2023-12-20T06:58:08;99746.00;;;4.66;100.00
31092;BME280;67728;53.122;12.776;2023-12-20T06:59:39;99745.16;;;4.67;100.00
31092;BME280;67728;53.122;12.776;2023-12-20T07:01:11;99750.28;;;4.69;100.00
31092;BME280;67728;53.122;12.776;2023-12-20T07:02:43;99742.53;;;4.70;100.00
31092;BME280;67728;53.122;12.776;2023-12-20T07:04:15;99740.84;;;4.68;100.00
31092;BME280;67728;53.122;12.776;2023-12-20T07:05:47;99742.53;;;4.73;100.00
31092;BME280;67728;53.122;12.776;2023-12-20T07:07:18;99733.13;;;4.71;100.00
31092;BME280;67728;53.122;12.776;2023-12-20T07:08:50;99743.41;;;4.69;100.00
31092;BME280;67728;53.122;12.776;2023-12-20T07:10:20;99742.53;;;4.72;100.00
31092;BME280;67728;53.122;12.776;2023-12-20T07:11:54;99740.84;;;4.71;100.00
31092;BME280;67728;53.122;12.776;2023-12-20T07:13:24;99736.56;;;4.70;100.00
31092;BME280;67728;53.122;12.776;2023-12-20T07:14:56;99732.28;;;4.72;100.00
31092;BME280;67728;53.122;12.776;2023-12-20T07:16:26;99736.56;;;4.71;100.00
31092;BME280;67728;53.122;12.776;2023-12-20T07:17:58;99735.69;;;4.72;100.00
31092;BME280;67728;53.122;12.776;2023-12-20T07:19:30;99732.28;;;4.72;100.00
31092;BME280;67728;53.122;12.776;2023-12-20T07:21:03;99730.56;;;4.71;100.00
31092;BME280;67728;53.122;12.776;2023-12-20T07:22:34;99732.28;;;4.70;100.00
31092;BME280;67728;53.122;12.776;2023-12-20T07:24:05;99733.09;;;4.74;100.00
31092;BME280;67728;53.122;12.776;2023-12-20T07:25:36;99731.41;;;4.74;100.00
31092;BME280;67728;53.122;12.776;2023-12-20T07:27:09;99732.28;;;4.72;100.00
31092;BME280;67728;53.122;12.776;2023-12-20T07:28:39;99722.00;;;4.72;100.00
31092;BME280;67728;53.122;12.776;2023-12-20T07:30:12;99730.56;;;4.71;100.00
31092;BME280;67728;53.122;12.776;2023-12-20T07:31:43;99726.28;;;4.71;100.00
31092;BME280;67728;53.122;12.776;2023-12-20T07:33:14;99730.53;;;4.74;100.00
31092;BME280;67728;53.122;12.776;2023-12-20T07:34:45;99730.56;;;4.71;100.00
31092;BME280;67728;53.122;12.776;2023-12-20T07:36:16;99730.56;;;4.71;100.00
31092;BME280;67728;53.122;12.776;2023-12-20T07:37:47;99731.44;;;4.70;100.00
31092;BME280;67728;53.122;12.776;2023-12-20T07:39:19;99740.84;;;4.68;100.00
31092;BME280;67728;53.122;12.776;2023-12-20T07:40:49;99736.56;;;4.70;100.00
31092;BME280;67728;53.122;12.776;2023-12-20T07:42:22;99740.84;;;4.71;100.00
31092;BME280;67728;53.122;12.776;2023-12-20T07:43:53;99737.41;;;4.70;100.00
31092;BME280;67728;53.122;12.776;2023-12-20T07:45:24;99739.16;;;4.70;100.00
31092;BME280;67728;53.122;12.776;2023-12-20T07:46:55;99738.25;;;4.71;100.00
31092;BME280;67728;53.122;12.776;2023-12-20T07:48:28;99736.56;;;4.71;100.00
31092;BME280;67728;53.122;12.776;2023-12-20T07:49:58;99736.56;;;4.71;100.00
31092;BME280;67728;53.122;12.776;2023-12-20T07:51:30;99740.81;;;4.74;100.00
31092;BME280;67728;53.122;12.776;2023-12-20T07:53:02;99743.38;;;4.74;100.00
31092;BME280;67728;53.122;12.776;2023-12-20T07:54:33;99732.25;;;4.75;100.00
31092;BME280;67728;53.122;12.776;2023-12-20T07:56:13;99729.66;;;4.78;100.00
31092;BME280;67728;53.122;12.776;2023-12-20T07:57:46;99721.09;;;4.77;100.00